sensor_id;sensor_type;location;lat;lon;timestamp;temperature;humidity
12688;DHT22;6408;59.388;17.798;2022-12-26T00:01:07;2.10;99.90
12688;DHT22;6408;59.388;17.798;2022-12-26T00:03:34;2.10;99.90
12688;DHT22;6408;59.388;17.798;2022-12-26T00:06:02;2.10;99.90
12688;DHT22;6408;59.388;17.798;2022-12-26T00:08:30;2.10;99.90
12688;DHT22;6408;59.388;17.798;2022-12-26T00:10:58;2.00;99.90
12688;DHT22;6408;59.388;17.798;2022-12-26T00:13:27;2.10;99.90
12688;DHT22;6408;59.388;17.798;2022-12-26T00:15:55;2.20;99.90
12688;DHT22;6408;59.388;17.798;2022-12-26T00:18:22;2.10;99.90
12688;DHT22;6408;59.388;17.798;2022-12-26T00:20:50;2.10;99.90
12688;DHT22;6408;59.388;17.798;2022-12-26T00:23:17;2.20;99.90
12688;DHT22;6408;59.388;17.798;2022-12-26T00:25:45;2.20;99.90
12688;DHT22;6408;59.388;17.798;2022-12-26T00:28:12;2.10;99.90
12688;DHT22;6408;59.388;17.798;2022-12-26T00:30:41;2.20;99.90
12688;DHT22;6408;59.388;17.798;2022-12-26T00:33:09;2.20;99.90
12688;DHT22;6408;59.388;17.798;2022-12-26T00:35:36;2.20;99.90
12688;DHT22;6408;59.388;17.798;2022-12-26T00:38:04;2.10;99.90
12688;DHT22;6408;59.388;17.798;2022-12-26T00:40:34;2.20;99.90
12688;DHT22;6408;59.388;17.798;2022-12-26T00:43:01;2.20;99.90
12688;DHT22;6408;59.388;17.798;2022-12-26T00:45:29;2.10;99.90
12688;DHT22;6408;59.388;17.798;2022-12-26T00:47:58;2.10;99.90
12688;DHT22;6408;59.388;17.798;2022-12-26T00:50:25;2.10;99.90
12688;DHT22;6408;59.388;17.798;2022-12-26T00:52:53;2.10;99.90
12688;DHT22;6408;59.388;17.798;2022-12-26T00:55:21;2.10;99.90
12688;DHT22;6408;59.388;17.798;2022-12-26T00:57:49;2.10;99.90
12688;DHT22;6408;59.388;17.798;2022-12-26T01:00:17;2.10;99.90
12688;DHT22;6408;59.388;17.798;2022-12-26T01:02:44;2.10;99.90
12688;DHT22;6408;59.388;17.798;2022-12-26T01:05:14;2.20;99.90
12688;DHT22;6408;59.388;17.798;2022-12-26T01:07:41;2.20;99.90
12688;DHT22;6408;59.388;17.798;2022-12-26T01:10:11;2.20;99.90
12688;DHT22;6408;59.388;17.798;2022-12-26T01:12:39;2.20;99.90
12688;DHT22;6408;59.388;17.798;2022-12-26T01:15:07;2.30;99.90
12688;DHT22;6408;59.388;17.798;2022-12-26T01:17:35;2.30;99.90
12688;DHT22;6408;59.388;17.798;2022-12-26T01:20:03;2.30;99.90
12688;DHT22;6408;59.388;17.798;2022-12-26T01:22:32;2.30;99.90
12688;DHT22;6408;59.388;17.798;2022-12-26T01:25:02;2.20;99.90
12688;DHT22;6408;59.388;17.798;2022-12-26T01:27:30;2.30;99.90
12688;DHT22;6408;59.388;17.798;2022-12-26T01:29:57;2.20;99.90
12688;DHT22;6408;59.388;17.798;2022-12-26T01:32:25;2.20;99.90
12688;DHT22;6408;59.388;17.798;2022-12-26T01:34:52;2.20;99.90
12688;DHT22;6408;59.388;17.798;2022-12-26T01:37:21;2.30;99.90
12688;DHT22;6408;59.388;17.798;2022-12-26T01:39:51;2.30;99.90
12688;DHT22;6408;59.388;17.798;2022-12-26T01:42:20;2.30;99.90
12688;DHT22;6408;59.388;17.798;2022-12-26T01:44:59;2.30;99.90
12688;DHT22;6408;59.388;17.798;2022-12-26T01:47:39;2.30;99.90
12688;DHT22;6408;59.388;17.798;2022-12-26T01:50:29;2.40;99.90
12688;DHT22;6408;59.388;17.798;2022-12-26T01:53:00;2.40;99.90
12688;DHT22;6408;59.388;17.798;2022-12-26T01:55:31;2.30;99.90
12688;DHT22;6408;59.388;17.798;2022-12-26T01:58:03;2.40;99.90
12688;DHT22;6408;59.388;17.798;2022-12-26T02:00:34;2.50;99.90
12688;DHT22;6408;59.388;17.798;2022-12-26T02:03:05;2.40;99.90
12688;DHT22;6408;59.388;17.798;2022-12-26T02:05:51;2.30;99.90
12688;DHT22;6408;59.388;17.798;2022-12-26T02:08:24;2.30;99.90
12688;DHT22;6408;59.388;17.798;2022-12-26T02:10:59;2.40;99.90
12688;DHT22;6408;59.388;17.798;2022-12-26T02:13:29;2.50;99.90
12688;DHT22;6408;59.388;17.798;2022-12-26T02:15:57;2.40;99.90
12688;DHT22;6408;59.388;17.798;2022-12-26T02:18:25;2.40;99.90
12688;DHT22;6408;59.388;17.798;2022-12-26T02:21:02;2.40;99.90
12688;DHT22;6408;59.388;17.798;2022-12-26T02:23:59;2.40;99.90
12688;DHT22;6408;59.388;17.798;2022-12-26T02:35:19;2.40;99.90
12688;DHT22;6408;59.388;17.798;2022-12-26T02:37:59;2.40;99.90
12688;DHT22;6408;59.388;17.798;2022-12-26T02:40:44;2.40;99.90
12688;DHT22;6408;59.388;17.798;2022-12-26T02:43:21;2.50;99.90
12688;DHT22;6408;59.388;17.798;2022-12-26T02:45:58;2.50;99.90
12688;DHT22;6408;59.388;17.798;2022-12-26T02:48:54;2.50;99.90
12688;DHT22;6408;59.388;17.798;2022-12-26T02:51:35;2.50;99.90
12688;DHT22;6408;59.388;17.798;2022-12-26T02:54:27;2.50;99.90
12688;DHT22;6408;59.388;17.798;2022-12-26T02:57:17;2.50;99.90
12688;DHT22;6408;59.388;17.798;2022-12-26T03:00:05;2.40;99.90
12688;DHT22;6408;59.388;17.798;2022-12-26T03:02:52;2.50;99.90
12688;DHT22;6408;59.388;17.798;2022-12-26T03:05:51;2.50;99.90
12688;DHT22;6408;59.388;17.798;2022-12-26T03:08:43;2.50;99.90
12688;DHT22;6408;59.388;17.798;2022-12-26T03:11:32;2.60;99.90
12688;DHT22;6408;59.388;17.798;2022-12-26T03:14:22;2.60;99.90
12688;DHT22;6408;59.388;17.798;2022-12-26T03:16:54;2.50;99.90
12688;DHT22;6408;59.388;17.798;2022-12-26T03:19:40;2.50;99.90
12688;DHT22;6408;59.388;17.798;2022-12-26T03:22:27;2.50;99.90
12688;DHT22;6408;59.388;17.798;2022-12-26T03:24:59;2.60;99.90
12688;DHT22;6408;59.388;17.798;2022-12-26T03:27:44;2.50;99.90
12688;DHT22;6408;59.388;17.798;2022-12-26T03:30:11;2.50;99.90
12688;DHT22;6408;59.388;17.798;2022-12-26T03:32:56;2.50;99.90
12688;DHT22;6408;59.388;17.798;2022-12-26T03:35:26;2.50;99.90
12688;DHT22;6408;59.388;17.798;2022-12-26T03:37:59;2.50;99.90
12688;DHT22;6408;59.388;17.798;2022-12-26T03:40:39;2.50;99.90
12688;DHT22;6408;59.388;17.798;2022-12-26T03:43:36;2.50;99.90
12688;DHT22;6408;59.388;17.798;2022-12-26T03:46:28;2.50;99.90
12688;DHT22;6408;59.388;17.798;2022-12-26T03:49:18;2.40;99.90
12688;DHT22;6408;59.388;17.798;2022-12-26T03:52:08;2.40;99.90
12688;DHT22;6408;59.388;17.798;2022-12-26T03:55:03;2.40;99.90
12688;DHT22;6408;59.388;17.798;2022-12-26T03:57:52;2.40;99.90
12688;DHT22;6408;59.388;17.798;2022-12-26T04:00:40;2.40;99.90
12688;DHT22;6408;59.388;17.798;2022-12-26T04:03:28;2.50;99.90
12688;DHT22;6408;59.388;17.798;2022-12-26T04:06:17;2.50;99.90
12688;DHT22;6408;59.388;17.798;2022-12-26T04:09:06;2.50;99.90
12688;DHT22;6408;59.388;17.798;2022-12-26T04:11:56;2.40;99.90
12688;DHT22;6408;59.388;17.798;2022-12-26T04:15:00;2.50;99.90
12688;DHT22;6408;59.388;17.798;2022-12-26T04:17:50;2.40;99.90
12688;DHT22;6408;59.388;17.798;2022-12-26T04:20:45;2.40;99.90
12688;DHT22;6408;59.388;17.798;2022-12-26T04:23:19;2.40;99.90
12688;DHT22;6408;59.388;17.798;2022-12-26T04:26:08;2.50;99.90
12688;DHT22;6408;59.388;17.798;2022-12-26T04:28:56;2.40;99.90
12688;DHT22;6408;59.388;17.798;2022-12-26T04:31:45;2.40;99.90
12688;DHT22;6408;59.388;17.798;2022-12-26T04:34:36;2.40;99.90
12688;DHT22;6408;59.388;17.798;2022-12-26T04:37:25;2.40;99.90
12688;DHT22;6408;59.388;17.798;2022-12-26T04:40:15;2.50;99.90
12688;DHT22;6408;59.388;17.798;2022-12-26T04:43:01;2.50;99.90
12688;DHT22;6408;59.388;17.798;2022-12-26T04:45:48;2.50;99.90
12688;DHT22;6408;59.388;17.798;2022-12-26T04:48:16;2.50;99.90
12688;DHT22;6408;59.388;17.798;2022-12-26T04:51:01;2.50;99.90
12688;DHT22;6408;59.388;17.798;2022-12-26T04:53:28;2.50;99.90
12688;DHT22;6408;59.388;17.798;2022-12-26T04:55:56;2.50;99.90
12688;DHT22;6408;59.388;17.798;2022-12-26T04:58:23;2.50;99.90
12688;DHT22;6408;59.388;17.798;2022-12-26T05:00:54;2.40;99.90
12688;DHT22;6408;59.388;17.798;2022-12-26T05:03:42;2.50;99.90
12688;DHT22;6408;59.388;17.798;2022-12-26T05:06:26;2.50;99.90
12688;DHT22;6408;59.388;17.798;2022-12-26T05:09:12;2.40;99.90
12688;DHT22;6408;59.388;17.798;2022-12-26T05:11:58;2.40;99.90
12688;DHT22;6408;59.388;17.798;2022-12-26T05:14:25;2.40;99.90
12688;DHT22;6408;59.388;17.798;2022-12-26T05:16:55;2.40;99.90
12688;DHT22;6408;59.388;17.798;2022-12-26T05:19:40;2.50;99.90
12688;DHT22;6408;59.388;17.798;2022-12-26T05:22:26;2.50;99.90
12688;DHT22;6408;59.388;17.798;2022-12-26T05:25:16;2.50;99.90
12688;DHT22;6408;59.388;17.798;2022-12-26T05:28:02;2.50;99.90
12688;DHT22;6408;59.388;17.798;2022-12-26T05:30:46;2.50;99.90
12688;DHT22;6408;59.388;17.798;2022-12-26T05:33:16;2.50;99.90
12688;DHT22;6408;59.388;17.798;2022-12-26T05:36:00;2.50;99.90
12688;DHT22;6408;59.388;17.798;2022-12-26T05:38:28;2.50;99.90
12688;DHT22;6408;59.388;17.798;2022-12-26T05:40:56;2.50;99.90
12688;DHT22;6408;59.388;17.798;2022-12-26T05:43:23;2.60;99.90
12688;DHT22;6408;59.388;17.798;2022-12-26T05:45:51;2.60;99.90
12688;DHT22;6408;59.388;17.798;2022-12-26T05:48:20;2.50;99.90
12688;DHT22;6408;59.388;17.798;2022-12-26T05:50:47;2.50;99.90
12688;DHT22;6408;59.388;17.798;2022-12-26T05:53:15;2.50;99.90
12688;DHT22;6408;59.388;17.798;2022-12-26T05:55:42;2.60;99.90
12688;DHT22;6408;59.388;17.798;2022-12-26T05:58:10;2.50;99.90
12688;DHT22;6408;59.388;17.798;2022-12-26T06:00:37;2.50;99.90
12688;DHT22;6408;59.388;17.798;2022-12-26T06:03:05;2.50;99.90
12688;DHT22;6408;59.388;17.798;2022-12-26T06:05:35;2.60;99.90
12688;DHT22;6408;59.388;17.798;2022-12-26T06:08:03;2.60;99.90
12688;DHT22;6408;59.388;17.798;2022-12-26T06:10:31;2.50;99.90
12688;DHT22;6408;59.388;17.798;2022-12-26T06:12:59;2.60;99.90
12688;DHT22;6408;59.388;17.798;2022-12-26T06:15:26;2.60;99.90
12688;DHT22;6408;59.388;17.798;2022-12-26T06:17:54;2.60;99.90
12688;DHT22;6408;59.388;17.798;2022-12-26T06:20:21;2.60;99.90
12688;DHT22;6408;59.388;17.798;2022-12-26T06:22:51;2.60;99.90
12688;DHT22;6408;59.388;17.798;2022-12-26T06:25:18;2.50;99.90
12688;DHT22;6408;59.388;17.798;2022-12-26T06:27:46;2.60;99.90
12688;DHT22;6408;59.388;17.798;2022-12-26T06:30:13;2.60;99.90
12688;DHT22;6408;59.388;17.798;2022-12-26T06:32:41;2.60;99.90
12688;DHT22;6408;59.388;17.798;2022-12-26T06:35:09;2.60;99.90
12688;DHT22;6408;59.388;17.798;2022-12-26T06:37:37;2.60;99.90
12688;DHT22;6408;59.388;17.798;2022-12-26T06:40:08;2.60;99.90
12688;DHT22;6408;59.388;17.798;2022-12-26T06:42:37;2.50;99.90
12688;DHT22;6408;59.388;17.798;2022-12-26T06:45:05;2.60;99.90
12688;DHT22;6408;59.388;17.798;2022-12-26T06:47:33;2.50;99.90
12688;DHT22;6408;59.388;17.798;2022-12-26T06:50:00;2.60;99.90
12688;DHT22;6408;59.388;17.798;2022-12-26T06:52:28;2.60;99.90
12688;DHT22;6408;59.388;17.798;2022-12-26T06:54:55;2.60;99.90
12688;DHT22;6408;59.388;17.798;2022-12-26T06:57:25;2.70;99.90
12688;DHT22;6408;59.388;17.798;2022-12-26T06:59:52;2.60;99.90
12688;DHT22;6408;59.388;17.798;2022-12-26T07:02:20;2.60;99.90
12688;DHT22;6408;59.388;17.798;2022-12-26T07:04:48;2.60;99.90
12688;DHT22;6408;59.388;17.798;2022-12-26T07:07:15;2.60;99.90
12688;DHT22;6408;59.388;17.798;2022-12-26T07:09:43;2.60;99.90
12688;DHT22;6408;59.388;17.798;2022-12-26T07:12:10;2.60;99.90
12688;DHT22;6408;59.388;17.798;2022-12-26T07:14:40;2.70;99.90
12688;DHT22;6408;59.388;17.798;2022-12-26T07:17:08;2.70;99.90
12688;DHT22;6408;59.388;17.798;2022-12-26T07:19:36;2.60;99.90
12688;DHT22;6408;59.388;17.798;2022-12-26T07:22:03;2.60;99.90
12688;DHT22;6408;59.388;17.798;2022-12-26T07:24:31;2.70;99.90
12688;DHT22;6408;59.388;17.798;2022-12-26T07:26:58;2.70;99.90
12688;DHT22;6408;59.388;17.798;2022-12-26T07:29:26;2.70;99.90
12688;DHT22;6408;59.388;17.798;2022-12-26T07:31:55;2.70;99.90
12688;DHT22;6408;59.388;17.798;2022-12-26T07:34:23;2.70;99.90
12688;DHT22;6408;59.388;17.798;2022-12-26T07:36:51;2.70;99.90
12688;DHT22;6408;59.388;17.798;2022-12-26T07:39:18;2.70;99.90
12688;DHT22;6408;59.388;17.798;2022-12-26T07:41:46;2.80;99.90
12688;DHT22;6408;59.388;17.798;2022-12-26T07:44:27;2.70;99.90
12688;DHT22;6408;59.388;17.798;2022-12-26T07:46:57;2.70;99.90
12688;DHT22;6408;59.388;17.798;2022-12-26T07:49:24;2.70;99.90
12688;DHT22;6408;59.388;17.798;2022-12-26T07:51:52;2.80;99.90
12688;DHT22;6408;59.388;17.798;2022-12-26T07:54:20;2.80;99.90
12688;DHT22;6408;59.388;17.798;2022-12-26T07:56:48;2.80;99.90
12688;DHT22;6408;59.388;17.798;2022-12-26T07:59:16;2.90;99.90
12688;DHT22;6408;59.388;17.798;2022-12-26T08:01:43;3.00;99.90
12688;DHT22;6408;59.388;17.798;2022-12-26T08:04:13;3.00;99.90
12688;DHT22;6408;59.388;17.798;2022-12-26T08:06:40;3.00;99.90
12688;DHT22;6408;59.388;17.798;2022-12-26T08:09:11;2.90;99.90
12688;DHT22;6408;59.388;17.798;2022-12-26T08:11:40;2.90;99.90
12688;DHT22;6408;59.388;17.798;2022-12-26T08:14:10;2.90;99.90
12688;DHT22;6408;59.388;17.798;2022-12-26T08:16:38;3.00;99.90
12688;DHT22;6408;59.388;17.798;2022-12-26T08:19:05;3.00;99.90
12688;DHT22;6408;59.388;17.798;2022-12-26T08:21:35;3.00;99.90
12688;DHT22;6408;59.388;17.798;2022-12-26T08:24:02;3.10;99.90
12688;DHT22;6408;59.388;17.798;2022-12-26T08:26:29;3.10;99.90
12688;DHT22;6408;59.388;17.798;2022-12-26T08:28:57;3.20;99.90
12688;DHT22;6408;59.388;17.798;2022-12-26T08:31:24;3.10;99.90
12688;DHT22;6408;59.388;17.798;2022-12-26T08:33:54;3.20;99.90
12688;DHT22;6408;59.388;17.798;2022-12-26T08:36:21;3.20;99.90
12688;DHT22;6408;59.388;17.798;2022-12-26T08:38:51;3.30;99.90
12688;DHT22;6408;59.388;17.798;2022-12-26T08:41:18;3.30;99.90
12688;DHT22;6408;59.388;17.798;2022-12-26T08:43:50;3.30;99.90
12688;DHT22;6408;59.388;17.798;2022-12-26T08:46:19;3.30;99.90
12688;DHT22;6408;59.388;17.798;2022-12-26T08:48:47;3.40;99.90
12688;DHT22;6408;59.388;17.798;2022-12-26T08:51:17;3.30;99.90
12688;DHT22;6408;59.388;17.798;2022-12-26T08:53:45;3.30;99.90
12688;DHT22;6408;59.388;17.798;2022-12-26T08:56:17;3.40;99.90
12688;DHT22;6408;59.388;17.798;2022-12-26T08:58:45;3.40;99.90
12688;DHT22;6408;59.388;17.798;2022-12-26T09:01:15;3.40;99.90
12688;DHT22;6408;59.388;17.798;2022-12-26T09:03:43;3.40;99.90
12688;DHT22;6408;59.388;17.798;2022-12-26T09:06:12;3.50;99.90
12688;DHT22;6408;59.388;17.798;2022-12-26T09:08:41;3.40;99.90
12688;DHT22;6408;59.388;17.798;2022-12-26T09:11:10;3.40;99.90
12688;DHT22;6408;59.388;17.798;2022-12-26T09:13:40;3.40;99.90
12688;DHT22;6408;59.388;17.798;2022-12-26T09:16:10;3.40;99.90
12688;DHT22;6408;59.388;17.798;2022-12-26T09:18:38;3.40;99.90
12688;DHT22;6408;59.388;17.798;2022-12-26T09:21:08;3.40;99.90
12688;DHT22;6408;59.388;17.798;2022-12-26T09:23:36;3.50;99.90
12688;DHT22;6408;59.388;17.798;2022-12-26T09:26:05;3.50;99.90
12688;DHT22;6408;59.388;17.798;2022-12-26T09:28:33;3.50;99.90
12688;DHT22;6408;59.388;17.798;2022-12-26T09:31:04;3.40;99.90
12688;DHT22;6408;59.388;17.798;2022-12-26T09:33:33;3.40;99.90
12688;DHT22;6408;59.388;17.798;2022-12-26T09:36:05;3.40;99.90
12688;DHT22;6408;59.388;17.798;2022-12-26T09:38:33;3.40;99.90
12688;DHT22;6408;59.388;17.798;2022-12-26T09:41:10;3.40;99.90
12688;DHT22;6408;59.388;17.798;2022-12-26T09:43:56;3.40;99.90
12688;DHT22;6408;59.388;17.798;2022-12-26T09:46:32;3.30;99.90
12688;DHT22;6408;59.388;17.798;2022-12-26T09:49:05;3.40;99.90
12688;DHT22;6408;59.388;17.798;2022-12-26T09:51:35;3.30;99.90
12688;DHT22;6408;59.388;17.798;2022-12-26T09:54:05;3.30;99.90
12688;DHT22;6408;59.388;17.798;2022-12-26T09:56:37;3.30;99.90
12688;DHT22;6408;59.388;17.798;2022-12-26T09:59:10;3.40;99.90
12688;DHT22;6408;59.388;17.798;2022-12-26T10:01:41;3.40;99.90
12688;DHT22;6408;59.388;17.798;2022-12-26T10:04:17;3.40;99.90
12688;DHT22;6408;59.388;17.798;2022-12-26T10:06:51;3.40;99.90
12688;DHT22;6408;59.388;17.798;2022-12-26T10:09:43;3.40;99.90
12688;DHT22;6408;59.388;17.798;2022-12-26T10:12:25;3.50;99.90
12688;DHT22;6408;59.388;17.798;2022-12-26T10:14:58;3.40;99.90
12688;DHT22;6408;59.388;17.798;2022-12-26T10:17:35;3.30;99.90
12688;DHT22;6408;59.388;17.798;2022-12-26T10:20:14;3.40;99.90
12688;DHT22;6408;59.388;17.798;2022-12-26T10:23:22;3.40;99.90
12688;DHT22;6408;59.388;17.798;2022-12-26T10:25:54;3.40;99.90
12688;DHT22;6408;59.388;17.798;2022-12-26T10:28:29;3.40;99.90
12688;DHT22;6408;59.388;17.798;2022-12-26T10:31:00;3.40;99.90
12688;DHT22;6408;59.388;17.798;2022-12-26T10:33:40;3.50;99.90
12688;DHT22;6408;59.388;17.798;2022-12-26T10:36:17;3.50;99.90
12688;DHT22;6408;59.388;17.798;2022-12-26T10:38:49;3.50;99.90
12688;DHT22;6408;59.388;17.798;2022-12-26T10:41:22;3.50;99.90
12688;DHT22;6408;59.388;17.798;2022-12-26T10:43:50;3.50;99.90
12688;DHT22;6408;59.388;17.798;2022-12-26T10:46:30;3.50;99.90
12688;DHT22;6408;59.388;17.798;2022-12-26T10:49:03;3.40;99.90
12688;DHT22;6408;59.388;17.798;2022-12-26T10:51:30;3.40;99.90
12688;DHT22;6408;59.388;17.798;2022-12-26T10:53:58;3.40;99.90
12688;DHT22;6408;59.388;17.798;2022-12-26T10:56:27;3.40;99.90
12688;DHT22;6408;59.388;17.798;2022-12-26T10:58:59;3.50;99.90
12688;DHT22;6408;59.388;17.798;2022-12-26T11:01:33;3.40;99.90
12688;DHT22;6408;59.388;17.798;2022-12-26T11:04:04;3.40;99.90
12688;DHT22;6408;59.388;17.798;2022-12-26T11:06:35;3.50;99.90
12688;DHT22;6408;59.388;17.798;2022-12-26T11:09:03;3.40;99.90
12688;DHT22;6408;59.388;17.798;2022-12-26T11:11:32;3.40;99.90
12688;DHT22;6408;59.388;17.798;2022-12-26T11:14:29;3.40;99.90
12688;DHT22;6408;59.388;17.798;2022-12-26T11:17:00;3.40;99.90
12688;DHT22;6408;59.388;17.798;2022-12-26T11:19:33;3.40;99.90
12688;DHT22;6408;59.388;17.798;2022-12-26T11:22:24;3.40;99.90
12688;DHT22;6408;59.388;17.798;2022-12-26T11:25:14;3.40;99.90
12688;DHT22;6408;59.388;17.798;2022-12-26T11:27:44;3.40;99.90
12688;DHT22;6408;59.388;17.798;2022-12-26T11:30:27;3.40;99.90
12688;DHT22;6408;59.388;17.798;2022-12-26T11:33:10;3.30;99.90
12688;DHT22;6408;59.388;17.798;2022-12-26T11:35:48;3.40;99.90
12688;DHT22;6408;59.388;17.798;2022-12-26T11:38:18;3.40;99.90
12688;DHT22;6408;59.388;17.798;2022-12-26T11:41:00;3.30;99.90
12688;DHT22;6408;59.388;17.798;2022-12-26T11:43:46;3.30;99.90
12688;DHT22;6408;59.388;17.798;2022-12-26T11:46:14;3.30;99.90
12688;DHT22;6408;59.388;17.798;2022-12-26T11:48:47;3.40;99.90
12688;DHT22;6408;59.388;17.798;2022-12-26T11:51:33;3.40;99.90
12688;DHT22;6408;59.388;17.798;2022-12-26T11:57:15;3.40;99.90
12688;DHT22;6408;59.388;17.798;2022-12-26T11:59:43;3.40;99.90
12688;DHT22;6408;59.388;17.798;2022-12-26T12:02:22;3.30;99.90
12688;DHT22;6408;59.388;17.798;2022-12-26T12:04:52;3.30;99.90
12688;DHT22;6408;59.388;17.798;2022-12-26T12:07:41;3.30;99.90
12688;DHT22;6408;59.388;17.798;2022-12-26T12:10:29;3.30;99.90
12688;DHT22;6408;59.388;17.798;2022-12-26T12:13:04;3.30;99.90
12688;DHT22;6408;59.388;17.798;2022-12-26T12:15:41;3.30;99.90
12688;DHT22;6408;59.388;17.798;2022-12-26T12:18:15;3.30;99.90
12688;DHT22;6408;59.388;17.798;2022-12-26T12:20:55;3.20;99.90
12688;DHT22;6408;59.388;17.798;2022-12-26T12:23:38;3.20;99.90
12688;DHT22;6408;59.388;17.798;2022-12-26T12:26:11;3.30;99.90
12688;DHT22;6408;59.388;17.798;2022-12-26T12:29:18;3.20;99.90
12688;DHT22;6408;59.388;17.798;2022-12-26T12:32:01;3.30;99.90
12688;DHT22;6408;59.388;17.798;2022-12-26T12:34:42;3.20;99.90
12688;DHT22;6408;59.388;17.798;2022-12-26T12:37:22;3.30;99.90
12688;DHT22;6408;59.388;17.798;2022-12-26T12:40:01;3.20;99.90
12688;DHT22;6408;59.388;17.798;2022-12-26T12:42:42;3.20;99.90
12688;DHT22;6408;59.388;17.798;2022-12-26T12:45:24;3.20;99.90
12688;DHT22;6408;59.388;17.798;2022-12-26T12:48:05;3.20;99.90
12688;DHT22;6408;59.388;17.798;2022-12-26T12:50:38;3.30;99.90
12688;DHT22;6408;59.388;17.798;2022-12-26T12:53:15;3.30;99.90
12688;DHT22;6408;59.388;17.798;2022-12-26T12:55:58;3.20;99.90
12688;DHT22;6408;59.388;17.798;2022-12-26T12:58:34;3.20;99.90
12688;DHT22;6408;59.388;17.798;2022-12-26T13:01:08;3.20;99.90
12688;DHT22;6408;59.388;17.798;2022-12-26T13:03:40;3.30;99.90
12688;DHT22;6408;59.388;17.798;2022-12-26T13:06:15;3.30;99.90
12688;DHT22;6408;59.388;17.798;2022-12-26T13:08:48;3.20;99.90
12688;DHT22;6408;59.388;17.798;2022-12-26T13:11:24;3.30;99.90
12688;DHT22;6408;59.388;17.798;2022-12-26T13:13:56;3.30;99.90
12688;DHT22;6408;59.388;17.798;2022-12-26T13:16:29;3.30;99.90
12688;DHT22;6408;59.388;17.798;2022-12-26T13:19:00;3.30;99.90
12688;DHT22;6408;59.388;17.798;2022-12-26T13:21:31;3.30;99.90
12688;DHT22;6408;59.388;17.798;2022-12-26T13:24:03;3.30;99.90
12688;DHT22;6408;59.388;17.798;2022-12-26T13:26:55;3.20;99.90
12688;DHT22;6408;59.388;17.798;2022-12-26T13:29:33;3.20;99.90
12688;DHT22;6408;59.388;17.798;2022-12-26T13:32:02;3.20;99.90
12688;DHT22;6408;59.388;17.798;2022-12-26T13:34:30;3.20;99.90
12688;DHT22;6408;59.388;17.798;2022-12-26T13:36:58;3.30;99.90
12688;DHT22;6408;59.388;17.798;2022-12-26T13:39:32;3.20;99.90
12688;DHT22;6408;59.388;17.798;2022-12-26T13:42:17;3.20;99.90
12688;DHT22;6408;59.388;17.798;2022-12-26T13:45:46;3.20;99.90
12688;DHT22;6408;59.388;17.798;2022-12-26T13:51:54;3.20;99.90
12688;DHT22;6408;59.388;17.798;2022-12-26T13:54:23;3.30;99.90
12688;DHT22;6408;59.388;17.798;2022-12-26T14:00:14;3.20;99.90
12688;DHT22;6408;59.388;17.798;2022-12-26T14:03:19;3.20;99.90
12688;DHT22;6408;59.388;17.798;2022-12-26T14:09:18;3.20;99.90
12688;DHT22;6408;59.388;17.798;2022-12-26T14:11:58;3.20;99.90
12688;DHT22;6408;59.388;17.798;2022-12-26T14:14:36;3.10;99.90
12688;DHT22;6408;59.388;17.798;2022-12-26T14:17:14;3.10;99.90
12688;DHT22;6408;59.388;17.798;2022-12-26T14:19:56;3.10;99.90
12688;DHT22;6408;59.388;17.798;2022-12-26T14:22:33;3.10;99.90
12688;DHT22;6408;59.388;17.798;2022-12-26T14:25:11;3.20;99.90
12688;DHT22;6408;59.388;17.798;2022-12-26T14:27:45;3.20;99.90
12688;DHT22;6408;59.388;17.798;2022-12-26T14:30:24;3.10;99.90
12688;DHT22;6408;59.388;17.798;2022-12-26T14:33:06;3.10;99.90
12688;DHT22;6408;59.388;17.798;2022-12-26T14:35:40;3.00;99.90
12688;DHT22;6408;59.388;17.798;2022-12-26T14:38:24;3.00;99.90
12688;DHT22;6408;59.388;17.798;2022-12-26T14:41:02;3.00;99.90
12688;DHT22;6408;59.388;17.798;2022-12-26T14:43:35;3.00;99.90
12688;DHT22;6408;59.388;17.798;2022-12-26T14:46:08;3.10;99.90
12688;DHT22;6408;59.388;17.798;2022-12-26T14:48:58;3.10;99.90
12688;DHT22;6408;59.388;17.798;2022-12-26T14:51:37;3.00;99.90
12688;DHT22;6408;59.388;17.798;2022-12-26T14:54:32;3.10;99.90
12688;DHT22;6408;59.388;17.798;2022-12-26T14:57:00;3.10;99.90
12688;DHT22;6408;59.388;17.798;2022-12-26T14:59:30;3.10;99.90
12688;DHT22;6408;59.388;17.798;2022-12-26T15:02:09;3.10;99.90
12688;DHT22;6408;59.388;17.798;2022-12-26T15:05:09;3.00;99.90
12688;DHT22;6408;59.388;17.798;2022-12-26T15:08:19;3.00;99.90
12688;DHT22;6408;59.388;17.798;2022-12-26T15:11:22;3.00;99.90
12688;DHT22;6408;59.388;17.798;2022-12-26T15:14:25;3.00;99.90
12688;DHT22;6408;59.388;17.798;2022-12-26T15:17:09;3.00;99.90
12688;DHT22;6408;59.388;17.798;2022-12-26T15:20:01;3.00;99.90
12688;DHT22;6408;59.388;17.798;2022-12-26T15:22:53;2.90;99.90
12688;DHT22;6408;59.388;17.798;2022-12-26T15:25:52;3.00;99.90
12688;DHT22;6408;59.388;17.798;2022-12-26T15:28:59;3.00;99.90
12688;DHT22;6408;59.388;17.798;2022-12-26T15:31:45;3.00;99.90
12688;DHT22;6408;59.388;17.798;2022-12-26T15:37:25;2.80;99.90
12688;DHT22;6408;59.388;17.798;2022-12-26T15:40:04;2.80;99.90
12688;DHT22;6408;59.388;17.798;2022-12-26T15:42:42;2.80;99.90
12688;DHT22;6408;59.388;17.798;2022-12-26T15:45:25;2.70;99.90
12688;DHT22;6408;59.388;17.798;2022-12-26T15:48:01;2.70;99.90
12688;DHT22;6408;59.388;17.798;2022-12-26T15:50:41;2.70;99.90
12688;DHT22;6408;59.388;17.798;2022-12-26T15:53:21;2.70;99.90
12688;DHT22;6408;59.388;17.798;2022-12-26T15:56:10;2.70;99.90
12688;DHT22;6408;59.388;17.798;2022-12-26T16:01:40;2.60;99.90
12688;DHT22;6408;59.388;17.798;2022-12-26T16:04:14;2.60;99.90
12688;DHT22;6408;59.388;17.798;2022-12-26T16:07:07;2.70;99.90
12688;DHT22;6408;59.388;17.798;2022-12-26T16:09:43;2.70;99.90
12688;DHT22;6408;59.388;17.798;2022-12-26T16:12:23;2.70;99.90
12688;DHT22;6408;59.388;17.798;2022-12-26T16:15:01;2.70;99.90
12688;DHT22;6408;59.388;17.798;2022-12-26T16:17:29;2.70;99.90
12688;DHT22;6408;59.388;17.798;2022-12-26T16:19:57;2.60;99.90
12688;DHT22;6408;59.388;17.798;2022-12-26T16:22:41;2.60;99.90
12688;DHT22;6408;59.388;17.798;2022-12-26T16:25:13;2.70;99.90
12688;DHT22;6408;59.388;17.798;2022-12-26T16:27:41;2.60;99.90
12688;DHT22;6408;59.388;17.798;2022-12-26T16:30:15;2.60;99.90
12688;DHT22;6408;59.388;17.798;2022-12-26T16:32:44;2.60;99.90
12688;DHT22;6408;59.388;17.798;2022-12-26T16:35:17;2.70;99.90
12688;DHT22;6408;59.388;17.798;2022-12-26T16:37:48;2.60;99.90
12688;DHT22;6408;59.388;17.798;2022-12-26T16:40:20;2.60;99.90
12688;DHT22;6408;59.388;17.798;2022-12-26T16:42:57;2.60;99.90
12688;DHT22;6408;59.388;17.798;2022-12-26T16:45:26;2.60;99.90
12688;DHT22;6408;59.388;17.798;2022-12-26T16:47:55;2.60;99.90
12688;DHT22;6408;59.388;17.798;2022-12-26T16:50:24;2.60;99.90
12688;DHT22;6408;59.388;17.798;2022-12-26T16:53:09;2.70;99.90
12688;DHT22;6408;59.388;17.798;2022-12-26T16:55:41;2.60;99.90
12688;DHT22;6408;59.388;17.798;2022-12-26T16:58:15;2.60;99.90
12688;DHT22;6408;59.388;17.798;2022-12-26T17:01:02;2.60;99.90
12688;DHT22;6408;59.388;17.798;2022-12-26T17:03:46;2.60;99.90
12688;DHT22;6408;59.388;17.798;2022-12-26T17:06:18;2.70;99.90